Terminal Aerodrome Forecast
Issued by NWS

Home | Current Version | Previous Version | Text Only | Print | Product List | Glossary On
Versions: 1 2 3 4 5 6 7 8 9 10 11 12 13 14 15 16
000
FTUS45 KGJT 281120
TAFASE
TAF
KASE 281120Z 2812/2912 22005KT P6SM SCT120
     FM281400 VRB03KT P6SM VCSH SCT060 BKN120
     FM281800 34005KT P6SM VCSH SCT060 BKN120
     FM282100 VRB05KT P6SM VCTS BKN060CB OVC120
     FM290200 20006KT P6SM BKN120
     FM290600 19005KT P6SM SCT200=

USA.gov is the U.S. government's official web portal to all federal, state and local government web resources and services.